Echola, Alabama
Current Conditions -  °F | °C
As of 10:09 AM on Sunday 23 Nov 2014 (Local Time) from KTCL Reporting Station
Thunderstorm Thunderstorm  
Wind Chill: 63°   Ceiling: 700
Heat Index: 63°   Visibility: 3mi
Dew Point: 61°   Wind: 7mph
Humidity: 93%   Direction: 130°SE
Pressure: 29.73"   Gusts: NA
Location:  33.34°N, 87.79°W
Report Text: KTCL 231609Z 13006KT 3SM VCTS -RA OVC007 17/16 A2973 RMK AO2 LTG DSNT SW-NW RAB04 PRESFR P0001 T01720161
Loading
Personal Weather Stations






























Interactive Weather Map New forecast layout! Learn more

10-Day Weather Forecast

Advertisements
Track Severe Weather on mobile